Time;durP1;ratioP1;P1;durP2;ratioP2;P2;SDS_P1;SDS_P2;PMS_P1;PMS_P2;Temp;Humidity;BMP_temperature;BMP_pressure;BME280_temperature;BME280_humidity;BME280_pressure;Samples;Min_cycle;Max_cycle;Signal;HPM_P1;HPM_P2
2021/01/14 00:00:54;;;;;;;12.67;8.10;;;;;;;1.13;66.14;100094.59;5034519;28;20033;-68
2021/01/14 00:03:20;;;;;;;12.63;7.47;;;;;;;0.88;65.38;100053.88;5034255;28;20074;-68
2021/01/14 00:05:45;;;;;;;12.20;7.77;;;;;;;1.04;65.51;100075.28;5033877;28;20446;-68
2021/01/14 00:08:11;;;;;;;12.43;6.93;;;;;;;1.14;66.10;100077.66;5033996;28;20033;-69
2021/01/14 00:10:38;;;;;;;12.63;7.73;;;;;;;1.21;66.52;100091.66;5034259;28;20075;-69
2021/01/14 00:13:07;;;;;;;11.60;7.57;;;;;;;0.99;66.22;100059.72;5033994;28;20025;-68
2021/01/14 00:15:33;;;;;;;12.30;7.50;;;;;;;1.20;66.74;100074.69;5034257;28;20116;-69
2021/01/14 00:17:59;;;;;;;13.10;6.90;;;;;;;1.50;65.32;100097.88;5034072;28;20095;-68
2021/01/14 00:20:26;;;;;;;11.67;6.87;;;;;;;1.36;64.75;100091.84;5033077;28;20456;-70
2021/01/14 00:22:51;;;;;;;11.50;7.23;;;;;;;1.35;65.47;100095.19;5029013;28;20036;-75
2021/01/14 00:25:18;;;;;;;13.17;7.13;;;;;;;1.43;66.28;100104.19;5031845;28;20438;-69
2021/01/14 00:27:44;;;;;;;11.63;6.60;;;;;;;1.50;65.89;100098.75;5033828;28;20029;-69
2021/01/14 00:30:27;;;;;;;13.90;7.93;;;;;;;1.39;65.77;100077.66;5015893;28;20609;-70
2021/01/14 00:32:54;;;;;;;15.87;8.93;;;;;;;1.50;66.74;100100.41;5033351;28;20078;-69
2021/01/14 00:35:19;;;;;;;13.43;8.10;;;;;;;1.40;67.71;100104.00;5032775;28;20025;-70
2021/01/14 00:37:50;;;;;;;16.93;9.20;;;;;;;1.37;68.78;100094.50;5033937;28;20384;-71
2021/01/14 00:40:28;;;;;;;15.53;9.60;;;;;;;1.37;68.42;100101.22;5025222;28;20120;-70
2021/01/14 00:42:55;;;;;;;16.90;8.70;;;;;;;1.38;69.35;100098.78;5033435;28;20087;-70
2021/01/14 00:45:20;;;;;;;15.67;9.07;;;;;;;1.07;68.93;100078.03;5024996;28;20116;-69
2021/01/14 00:47:46;;;;;;;14.63;9.07;;;;;;;1.27;69.54;100093.00;5033420;28;20028;-72
2021/01/14 00:50:11;;;;;;;17.10;9.70;;;;;;;1.03;69.87;100066.75;5033272;28;20041;-69
2021/01/14 00:52:37;;;;;;;16.97;10.00;;;;;;;1.18;70.27;100087.25;5030899;28;20037;-72
2021/01/14 00:55:02;;;;;;;19.43;10.90;;;;;;;1.20;70.83;100095.03;5031325;28;20622;-69
2021/01/14 00:57:28;;;;;;;18.87;10.43;;;;;;;1.06;71.78;100094.94;5031383;28;20148;-69
2021/01/14 00:59:53;;;;;;;21.57;11.63;;;;;;;0.95;72.35;100103.50;5030601;28;20398;-73
2021/01/14 01:02:19;;;;;;;21.67;11.97;;;;;;;0.89;72.75;100095.44;5030712;28;20041;-71
2021/01/14 01:04:44;;;;;;;19.80;12.50;;;;;;;0.96;73.22;100100.19;5030770;28;20040;-71
2021/01/14 01:07:11;;;;;;;24.60;12.60;;;;;;;0.90;72.78;100059.09;5030854;28;20035;-69
2021/01/14 01:09:37;;;;;;;21.57;12.80;;;;;;;0.96;73.45;100065.47;5030803;28;20045;-70
2021/01/14 01:12:02;;;;;;;25.60;13.67;;;;;;;1.09;73.99;100096.81;5030807;28;20423;-70
2021/01/14 01:14:28;;;;;;;24.23;15.30;;;;;;;0.96;74.77;100095.09;5030465;28;20056;-71
2021/01/14 01:16:54;;;;;;;24.20;13.13;;;;;;;1.02;73.85;100092.94;5029598;28;20045;-72
2021/01/14 01:19:20;;;;;;;25.47;15.00;;;;;;;0.97;75.21;100084.13;5030100;28;20485;-73
2021/01/14 01:21:47;;;;;;;27.73;15.37;;;;;;;0.95;75.71;100070.44;5030526;28;20029;-70
2021/01/14 01:24:13;;;;;;;28.03;14.43;;;;;;;1.18;74.85;100081.31;5031768;28;20050;-71
2021/01/14 01:26:38;;;;;;;24.67;14.87;;;;;;;0.85;74.26;100014.66;5032624;28;20030;-70
2021/01/14 01:29:04;;;;;;;26.47;13.97;;;;;;;1.36;74.40;100074.03;5032863;28;20120;-66
2021/01/14 01:31:30;;;;;;;24.60;13.53;;;;;;;1.52;73.35;100078.47;5033245;28;20446;-67
2021/01/14 01:33:56;;;;;;;22.50;13.17;;;;;;;1.50;72.77;100082.59;5032380;28;20068;-69
2021/01/14 01:36:21;;;;;;;20.93;12.10;;;;;;;1.38;72.12;100080.97;5032827;28;20033;-69
2021/01/14 01:38:46;;;;;;;21.93;12.13;;;;;;;1.09;72.57;100054.47;5032756;28;20030;-69
2021/01/14 01:41:12;;;;;;;20.90;12.03;;;;;;;1.17;72.61;100074.44;5032214;28;20091;-69
2021/01/14 01:43:37;;;;;;;23.67;12.73;;;;;;;1.01;73.67;100078.50;5032603;28;20030;-67
2021/01/14 01:46:05;;;;;;;23.20;12.10;;;;;;;0.94;74.25;100084.81;5032140;28;20464;-68
2021/01/14 01:48:31;;;;;;;22.77;12.37;;;;;;;1.06;74.43;100089.88;5032706;28;20132;-72
2021/01/14 01:50:58;;;;;;;20.10;10.80;;;;;;;0.60;73.76;100013.88;5032215;28;20583;-70
2021/01/14 01:53:25;;;;;;;18.83;11.03;;;;;;;0.88;74.17;100071.66;5032428;28;20029;-68
2021/01/14 01:55:51;;;;;;;19.60;10.17;;;;;;;0.95;73.68;100078.09;5032634;28;20531;-71
2021/01/14 01:58:21;;;;;;;21.83;12.50;;;;;;;0.92;74.72;100077.84;5031980;28;20039;-73
2021/01/14 02:00:47;;;;;;;19.73;11.68;;;;;;;0.64;74.34;100041.25;5032268;28;20087;-66
2021/01/14 02:03:12;;;;;;;22.10;12.73;;;;;;;0.93;74.74;100084.72;5031124;28;20442;-68
2021/01/14 02:05:37;;;;;;;21.03;11.53;;;;;;;0.47;74.35;100047.72;5031699;28;20080;-69
2021/01/14 02:08:12;;;;;;;20.53;10.67;;;;;;;0.71;74.09;100093.38;5032118;28;20021;-70
2021/01/14 02:11:00;;;;;;;20.23;10.20;;;;;;;0.41;74.42;100059.97;5031814;28;20036;-69
2021/01/14 02:13:43;;;;;;;20.20;11.20;;;;;;;0.68;74.73;100097.38;5031858;28;20037;-70
2021/01/14 02:16:10;;;;;;;16.77;9.93;;;;;;;0.63;73.96;100092.81;5025080;28;20435;-69
2021/01/14 02:18:36;;;;;;;18.17;10.33;;;;;;;0.63;75.28;100097.91;5031656;28;20076;-70
2021/01/14 02:21:06;;;;;;;20.27;10.77;;;;;;;0.61;74.59;100098.56;5031168;28;20057;-70
2021/01/14 02:23:38;;;;;;;17.60;9.73;;;;;;;0.61;74.53;100091.84;5031803;28;20026;-69
2021/01/14 02:26:20;;;;;;;20.03;10.67;;;;;;;0.55;75.28;100085.44;5031803;28;20026;-72
2021/01/14 02:28:47;;;;;;;18.57;11.50;;;;;;;0.62;75.60;100097.81;5031517;28;20017;-72
2021/01/14 02:31:14;;;;;;;20.53;10.70;;;;;;;0.61;75.08;100086.78;5031428;28;20052;-72
2021/01/14 02:33:40;;;;;;;20.30;10.83;;;;;;;0.58;75.39;100083.13;5031834;28;20037;-72
2021/01/14 02:36:06;;;;;;;20.17;10.80;;;;;;;0.47;75.67;100062.94;5031370;28;20412;-72
2021/01/14 02:38:32;;;;;;;20.10;11.10;;;;;;;0.38;75.17;100038.56;5031789;28;20037;-67
2021/01/14 02:40:57;;;;;;;17.50;9.90;;;;;;;0.61;75.85;100081.69;5031237;28;20112;-69
2021/01/14 02:43:23;;;;;;;18.90;11.07;;;;;;;0.67;75.36;100088.84;5031657;28;20528;-67
2021/01/14 02:45:49;;;;;;;18.97;10.77;;;;;;;0.68;75.27;100090.63;4996328;28;20041;-67
2021/01/14 02:48:19;;;;;;;16.37;9.63;;;;;;;0.56;75.29;100088.13;5031357;28;20029;-64
2021/01/14 02:50:47;;;;;;;22.57;11.10;;;;;;;0.70;74.67;100089.06;5031155;28;20484;-67
2021/01/14 02:53:15;;;;;;;18.60;10.27;;;;;;;0.74;74.43;100082.56;5031693;28;20079;-66
2021/01/14 02:55:40;;;;;;;19.17;11.17;;;;;;;0.74;73.88;100088.50;5031453;28;20087;-67
2021/01/14 02:58:06;;;;;;;18.40;9.50;;;;;;;0.70;74.54;100083.09;5031016;28;20100;-69
2021/01/14 03:00:33;;;;;;;19.03;10.23;;;;;;;0.60;74.51;100086.69;5030778;28;20491;-69
2021/01/14 03:02:58;;;;;;;17.97;10.13;;;;;;;0.59;73.88;100082.38;5030899;28;20029;-70
2021/01/14 03:05:24;;;;;;;20.83;10.60;;;;;;;0.52;75.08;100068.34;5031297;28;20082;-70
2021/01/14 03:07:49;;;;;;;17.60;9.87;;;;;;;0.60;74.40;100081.59;5030690;28;20032;-70
2021/01/14 03:10:15;;;;;;;17.47;10.10;;;;;;;0.62;74.18;100082.56;5031492;28;20036;-68
2021/01/14 03:12:41;;;;;;;16.43;9.17;;;;;;;0.75;73.57;100086.88;5031171;28;20029;-68
2021/01/14 03:15:07;;;;;;;20.17;10.23;;;;;;;0.64;73.45;100079.34;5030893;28;20056;-68
2021/01/14 03:17:37;;;;;;;18.70;10.23;;;;;;;0.57;73.25;100063.59;5031384;28;20044;-67
2021/01/14 03:20:07;;;;;;;19.20;10.10;;;;;;;0.45;74.40;100077.19;5030428;28;20136;-69
2021/01/14 03:22:39;;;;;;;17.60;9.70;;;;;;;0.46;74.07;100096.75;5030935;28;20480;-69
2021/01/14 03:25:08;;;;;;;17.70;9.67;;;;;;;0.20;74.16;100056.78;5031348;28;20036;-70
2021/01/14 03:27:41;;;;;;;17.67;8.77;;;;;;;0.35;74.27;100096.72;5031314;28;20112;-70
2021/01/14 03:30:08;;;;;;;15.10;9.30;;;;;;;0.28;74.37;100096.28;5030659;28;20034;-69
2021/01/14 03:32:34;;;;;;;17.60;9.67;;;;;;;0.22;75.01;100092.44;5029637;28;20164;-68
2021/01/14 03:35:00;;;;;;;15.23;9.30;;;;;;;0.21;75.60;100086.47;5030985;28;20112;-71
2021/01/14 03:37:25;;;;;;;18.87;10.03;;;;;;;0.14;74.42;100092.75;5030990;28;20395;-70
2021/01/14 03:39:51;;;;;;;16.40;8.07;;;;;;;0.18;74.51;100098.06;5031220;28;20026;-70
2021/01/14 03:42:20;;;;;;;16.10;9.13;;;;;;;0.09;74.27;100083.06;5030684;28;20033;-69
2021/01/14 03:44:46;;;;;;;20.77;9.45;;;;;;;0.15;74.14;100089.47;5017533;28;20039;-69
2021/01/14 03:47:12;;;;;;;16.77;8.20;;;;;;;0.00;73.53;100088.34;5030051;28;20538;-69
2021/01/14 03:49:38;;;;;;;15.97;8.50;;;;;;;0.07;74.06;100095.63;5030821;28;20026;-70
2021/01/14 03:52:03;;;;;;;15.73;9.40;;;;;;;-0.21;74.09;100044.53;5030906;28;20407;-69
2021/01/14 03:54:29;;;;;;;14.10;8.13;;;;;;;0.11;73.22;100086.56;5028075;28;20458;-68
2021/01/14 03:56:54;;;;;;;16.57;8.67;;;;;;;-0.09;73.47;100062.28;5021852;28;20385;-66
2021/01/14 03:59:20;;;;;;;13.97;8.17;;;;;;;0.05;73.94;100079.41;5024952;28;20026;-70
2021/01/14 04:01:45;;;;;;;14.87;8.83;;;;;;;0.04;73.90;100072.56;5030485;28;20026;-70
2021/01/14 04:04:11;;;;;;;15.23;9.07;;;;;;;-0.12;74.07;100045.19;5030866;28;20036;-69
2021/01/14 04:06:37;;;;;;;17.17;8.53;;;;;;;-0.09;74.08;100080.94;5030407;28;20030;-70
2021/01/14 04:09:04;;;;;;;13.40;7.93;;;;;;;-0.07;74.65;100091.22;5032172;28;20032;-71
2021/01/14 04:11:30;;;;;;;16.53;9.07;;;;;;;-0.08;74.51;100085.22;5033799;28;20026;-70
2021/01/14 04:13:56;;;;;;;17.60;8.87;;;;;;;-0.08;74.97;100086.91;5033898;28;20025;-70
2021/01/14 04:16:21;;;;;;;14.77;9.20;;;;;;;-0.08;74.68;100094.50;5023622;28;20033;-69
2021/01/14 04:18:47;;;;;;;16.77;9.83;;;;;;;-0.09;75.17;100080.94;5014585;28;20485;-68
2021/01/14 04:21:14;;;;;;;15.33;9.10;;;;;;;-0.18;74.95;100083.69;5026032;28;20136;-68
2021/01/14 04:23:40;;;;;;;12.83;6.80;;;;;;;-0.52;74.51;100027.06;5033940;28;20041;-68
2021/01/14 04:26:05;;;;;;;16.83;9.17;;;;;;;-0.26;74.78;100078.81;5033407;28;20037;-69
2021/01/14 04:28:31;;;;;;;14.13;7.60;;;;;;;-0.30;75.39;100081.91;5033409;28;20033;-64
2021/01/14 04:30:57;;;;;;;16.13;8.60;;;;;;;-0.31;75.91;100088.63;5032604;28;20033;-68
2021/01/14 04:33:23;;;;;;;16.83;8.60;;;;;;;-0.41;75.88;100068.41;5029934;28;20026;-70
2021/01/14 04:35:56;;;;;;;14.07;8.23;;;;;;;-0.38;76.29;100083.88;5021494;28;20037;-73
2021/01/14 04:38:24;;;;;;;18.00;9.73;;;;;;;-0.37;76.37;100072.97;5015807;28;20536;-74
2021/01/14 04:40:58;;;;;;;16.50;9.37;;;;;;;-0.30;75.57;100077.69;5033187;28;20061;-74
2021/01/14 04:43:27;;;;;;;16.47;9.37;;;;;;;-0.35;76.03;100079.00;5033627;28;20022;-74
2021/01/14 04:46:04;;;;;;;15.23;7.45;;;;;;;-0.40;76.21;100080.34;5033919;28;20025;-74
2021/01/14 04:48:38;;;;;;;14.13;8.13;;;;;;;-0.45;76.60;100076.56;5033767;28;20036;-74
2021/01/14 04:51:14;;;;;;;14.57;8.90;;;;;;;-0.50;77.00;100069.53;5030795;28;20052;-74
2021/01/14 04:53:42;;;;;;;14.67;8.97;;;;;;;-0.47;77.27;100088.25;5033322;28;20029;-74
2021/01/14 04:56:10;;;;;;;16.17;8.43;;;;;;;-0.72;77.52;100038.28;5033227;28;20026;-74
2021/01/14 04:58:38;;;;;;;16.50;8.30;;;;;;;-0.54;77.07;100087.78;5033450;28;20026;-73
2021/01/14 05:01:24;;;;;;;15.53;7.97;;;;;;;-0.45;77.32;100089.25;5033392;28;20087;-74
2021/01/14 05:03:51;;;;;;;16.37;9.00;;;;;;;-0.48;77.35;100081.44;5033332;28;20091;-73
2021/01/14 05:06:19;;;;;;;22.03;12.60;;;;;;;-0.51;76.46;100088.03;5032986;28;20052;-74
2021/01/14 05:08:46;;;;;;;18.77;11.73;;;;;;;-0.56;77.05;100084.28;5033416;28;20025;-73
2021/01/14 05:11:16;;;;;;;19.67;10.57;;;;;;;-0.54;77.39;100075.09;5033226;28;20403;-74
2021/01/14 05:13:44;;;;;;;14.77;8.67;;;;;;;-0.54;76.70;100077.66;5019503;28;20026;-71
2021/01/14 05:16:10;;;;;;;17.20;9.23;;;;;;;-0.59;76.29;100076.41;5021210;28;20038;-67
2021/01/14 05:18:35;;;;;;;17.07;9.17;;;;;;;-0.53;76.66;100070.94;5032037;28;20087;-74
2021/01/14 05:21:01;;;;;;;17.77;9.90;;;;;;;-0.55;76.69;100065.75;5031546;28;20049;-74
2021/01/14 05:23:31;;;;;;;16.53;9.97;;;;;;;-0.51;76.25;100056.72;5032922;28;20025;-74
2021/01/14 05:25:58;;;;;;;15.93;9.23;;;;;;;-0.70;76.90;100047.75;5033126;28;20029;-74
2021/01/14 05:28:29;;;;;;;17.97;10.57;;;;;;;-0.65;77.31;100063.28;5032341;28;20427;-74
2021/01/14 05:31:13;;;;;;;16.80;10.00;;;;;;;-0.68;77.79;100058.88;5027976;28;20029;-70
2021/01/14 05:33:39;;;;;;;14.57;9.83;;;;;;;-0.86;77.62;100024.53;5033038;28;20030;-70
2021/01/14 05:36:04;;;;;;;16.97;9.27;;;;;;;-0.72;76.70;100056.88;5027142;28;20029;-70
2021/01/14 05:38:32;;;;;;;16.77;10.00;;;;;;;-0.70;76.72;100047.75;5013230;28;20029;-71
2021/01/14 05:41:19;;;;;;;19.27;9.67;;;;;;;-0.71;77.14;100066.25;5029637;28;20051;-69
2021/01/14 05:43:48;;;;;;;14.93;8.63;;;;;;;-0.86;77.22;100068.53;5032752;28;20045;-69
2021/01/14 05:46:17;;;;;;;17.00;10.07;;;;;;;-0.90;77.68;100056.38;5032413;28;20041;-69
2021/01/14 05:48:43;;;;;;;16.27;9.57;;;;;;;-0.72;76.95;100071.22;5025524;28;20452;-67
2021/01/14 05:51:35;;;;;;;16.60;8.80;;;;;;;-0.83;76.57;100068.75;5018359;28;20032;-68
2021/01/14 05:54:04;;;;;;;19.47;9.60;;;;;;;-0.84;76.62;100064.44;4951329;29;20035;-68
2021/01/14 05:56:48;;;;;;;19.42;9.98;;;;;;;-0.80;76.54;100069.75;4950814;29;20081;-67
2021/01/14 05:59:16;;;;;;;18.33;9.50;;;;;;;-0.88;76.75;100059.91;4951592;29;20034;-68
2021/01/14 06:01:57;;;;;;;17.43;9.53;;;;;;;-0.90;76.19;100063.97;4951449;29;20031;-68
2021/01/14 06:04:25;;;;;;;19.63;10.17;;;;;;;-1.17;76.38;100024.78;4951779;28;20043;-69
2021/01/14 06:06:53;;;;;;;16.53;9.93;;;;;;;-0.87;76.17;100066.75;4951969;28;20035;-69
2021/01/14 06:09:21;;;;;;;17.37;9.37;;;;;;;-1.04;76.32;100060.38;4951735;28;20106;-73
2021/01/14 06:11:50;;;;;;;18.13;9.20;;;;;;;-0.96;75.89;100071.09;4950452;29;20074;-70
2021/01/14 06:14:24;;;;;;;15.40;9.20;;;;;;;-1.02;76.21;100063.06;4933797;29;20054;-69
2021/01/14 06:16:50;;;;;;;19.20;9.63;;;;;;;-0.96;76.28;100081.22;4950425;28;20493;-68
2021/01/14 06:19:16;;;;;;;19.00;9.90;;;;;;;-0.93;76.77;100086.56;4950896;29;20051;-69
2021/01/14 06:21:47;;;;;;;19.37;10.30;;;;;;;-0.77;76.88;100096.22;4950919;29;20074;-69
2021/01/14 06:24:25;;;;;;;16.40;10.47;;;;;;;-0.74;75.41;100083.75;4951005;29;20043;-69
2021/01/14 06:27:10;;;;;;;17.93;9.67;;;;;;;-0.95;75.12;100056.81;4950480;29;20532;-69
2021/01/14 06:29:37;;;;;;;16.77;10.60;;;;;;;-0.66;75.37;100102.09;4951091;28;20050;-69
2021/01/14 06:32:18;;;;;;;19.30;10.33;;;;;;;-0.70;75.14;100095.00;5015173;28;20031;-74
2021/01/14 06:34:51;;;;;;;15.10;10.07;;;;;;;-0.73;75.59;100074.53;5019678;28;20104;-74
2021/01/14 06:37:20;;;;;;;15.90;9.27;;;;;;;-0.68;75.04;100083.34;5031379;28;20056;-74
2021/01/14 06:39:56;;;;;;;17.33;10.67;;;;;;;-0.61;75.35;100087.22;5031437;28;20037;-69
2021/01/14 06:42:33;;;;;;;22.33;10.40;;;;;;;-0.66;74.80;100091.97;5017985;28;20038;-70
2021/01/14 06:45:03;;;;;;;16.57;9.10;;;;;;;-0.54;74.62;100095.41;5022308;28;20018;-71
2021/01/14 06:47:42;;;;;;;18.27;9.67;;;;;;;-0.70;73.84;100067.13;5013929;28;20022;-69
2021/01/14 06:50:19;;;;;;;17.83;9.30;;;;;;;-0.55;73.73;100095.28;5013598;28;20030;-69
2021/01/14 06:53:12;;;;;;;16.50;10.20;;;;;;;-0.51;74.04;100097.31;5015233;28;20073;-73
2021/01/14 06:55:39;;;;;;;13.43;7.60;;;;;;;-0.73;73.09;100069.44;5023633;28;20030;-71
2021/01/14 06:58:13;;;;;;;17.30;9.90;;;;;;;-0.63;74.14;100078.63;5031222;28;20033;-71
2021/01/14 07:00:45;;;;;;;15.63;8.93;;;;;;;-0.41;73.01;100099.75;5023193;28;20198;-68
2021/01/14 07:03:13;;;;;;;13.17;7.67;;;;;;;-0.48;72.71;100096.66;5030875;28;20067;-68
2021/01/14 07:06:01;;;;;;;16.13;9.00;;;;;;;-0.34;72.80;100107.06;5031388;28;20402;-70
2021/01/14 07:08:33;;;;;;;14.83;7.60;;;;;;;-0.29;72.45;100107.38;5030930;28;20037;-70
2021/01/14 07:11:03;;;;;;;17.13;9.77;;;;;;;-0.26;72.80;100105.06;5031176;28;20025;-69
2021/01/14 07:13:45;;;;;;;13.70;8.47;;;;;;;-0.04;71.69;100105.00;5031232;28;20087;-70
2021/01/14 07:16:15;;;;;;;16.67;8.93;;;;;;;-0.02;72.05;100110.19;5031480;28;20030;-70
2021/01/14 07:18:41;;;;;;;16.90;9.20;;;;;;;-0.04;71.93;100074.56;5031210;28;20103;-70
2021/01/14 07:21:45;;;;;;;16.63;10.03;;;;;;;0.22;72.27;100100.91;5030927;28;20123;-70
2021/01/14 07:24:28;;;;;;;16.23;9.43;;;;;;;0.04;71.12;100070.03;5029517;28;20060;-70
2021/01/14 07:27:02;;;;;;;15.03;9.13;;;;;;;0.34;71.25;100094.94;5031173;28;20064;-70
2021/01/14 07:29:28;;;;;;;18.87;8.60;;;;;;;0.30;70.84;100104.91;5030833;28;20475;-70
2021/01/14 07:31:55;;;;;;;21.13;11.63;;;;;;;0.35;70.72;100107.78;5031208;28;20076;-70
2021/01/14 07:34:45;;;;;;;25.63;12.93;;;;;;;0.43;69.87;100110.88;5031282;28;20060;-70
2021/01/14 07:37:13;;;;;;;18.57;10.77;;;;;;;0.53;70.10;100110.75;5031373;28;20467;-70
2021/01/14 07:39:44;;;;;;;19.27;10.37;;;;;;;0.47;69.70;100105.22;5031057;28;20076;-71
2021/01/14 07:42:10;;;;;;;15.87;9.13;;;;;;;0.50;70.36;100109.63;5031213;28;20033;-71
2021/01/14 07:44:37;;;;;;;17.43;10.33;;;;;;;0.46;70.10;100100.91;5033380;28;20030;-70
2021/01/14 07:47:04;;;;;;;18.50;10.63;;;;;;;0.55;70.81;100098.13;5034994;28;20034;-70
2021/01/14 07:49:30;;;;;;;15.53;8.87;;;;;;;0.61;70.04;100096.03;5035086;28;20029;-70
2021/01/14 07:51:55;;;;;;;15.67;8.37;;;;;;;0.64;69.06;100116.59;5034847;28;20037;-69
2021/01/14 07:54:21;;;;;;;15.13;9.43;;;;;;;0.62;68.98;100077.47;5034626;28;20026;-69
2021/01/14 07:56:52;;;;;;;14.83;8.50;;;;;;;0.87;68.46;100107.16;5035007;28;20025;-70
2021/01/14 07:59:28;;;;;;;10.83;7.10;;;;;;;0.78;67.37;100100.63;5034752;28;20033;-70
2021/01/14 08:02:07;;;;;;;15.43;9.03;;;;;;;0.88;67.72;100101.31;5034709;28;20034;-70
2021/01/14 08:04:46;;;;;;;14.95;8.20;;;;;;;0.94;68.12;100091.56;5034763;28;20025;-69
2021/01/14 08:07:22;;;;;;;17.40;9.07;;;;;;;1.19;67.66;100103.41;5034977;28;20104;-70
2021/01/14 08:09:49;;;;;;;13.20;8.20;;;;;;;1.14;66.98;100105.63;5034637;28;20032;-69
2021/01/14 08:12:15;;;;;;;11.57;7.10;;;;;;;0.99;66.72;100097.84;5034522;28;20537;-69
2021/01/14 08:14:41;;;;;;;12.20;6.87;;;;;;;1.10;66.27;100098.59;5034792;28;20029;-68
2021/01/14 08:17:22;;;;;;;11.67;7.67;;;;;;;0.75;65.87;100062.31;5034598;28;20460;-70
2021/01/14 08:19:48;;;;;;;11.17;6.27;;;;;;;1.12;65.95;100103.00;5034556;28;20123;-67
2021/01/14 08:22:14;;;;;;;14.30;8.53;;;;;;;1.15;66.11;100089.63;5034256;28;20067;-69
2021/01/14 08:24:59;;;;;;;14.37;7.97;;;;;;;1.41;66.38;100093.06;5015857;28;20768;-70
2021/01/14 08:27:28;;;;;;;13.57;8.30;;;;;;;1.54;65.44;100093.06;5021820;28;20514;-66
2021/01/14 08:30:12;;;;;;;11.85;6.72;;;;;;;1.52;65.13;100088.66;5034158;28;20376;-70
2021/01/14 08:32:43;;;;;;;10.87;6.77;;;;;;;1.41;63.88;100093.91;5022411;28;20025;-70
2021/01/14 08:35:17;;;;;;;19.33;12.80;;;;;;;1.52;65.19;100086.13;5034064;28;20108;-70
2021/01/14 08:37:42;;;;;;;14.17;8.47;;;;;;;1.53;63.48;100091.28;5033940;28;20100;-70
2021/01/14 08:40:11;;;;;;;12.67;7.63;;;;;;;1.60;62.59;100077.34;5033884;28;20176;-68
2021/01/14 08:42:39;;;;;;;10.35;6.30;;;;;;;1.70;63.28;100081.38;5033265;28;20543;-70
2021/01/14 08:45:11;;;;;;;14.67;6.63;;;;;;;1.63;62.23;100058.84;5033778;28;20030;-68
2021/01/14 08:47:52;;;;;;;13.53;6.90;;;;;;;1.43;62.50;100035.50;5033870;28;20029;-70
2021/01/14 08:50:51;;;;;;;12.00;6.50;;;;;;;1.82;63.15;100076.19;5033853;28;20063;-70
2021/01/14 08:53:19;;;;;;;10.82;6.88;;;;;;;1.93;62.52;100075.22;5020549;28;20076;-69
2021/01/14 08:56:01;;;;;;;11.47;6.00;;;;;;;1.66;62.60;100039.59;5033682;28;20036;-70
2021/01/14 08:58:49;;;;;;;10.60;7.03;;;;;;;1.95;63.46;100076.22;5020811;28;20124;-69
2021/01/14 09:01:14;;;;;;;13.37;8.07;;;;;;;2.31;63.65;100081.06;5015656;28;20108;-69
2021/01/14 09:03:40;;;;;;;12.87;7.23;;;;;;;2.18;62.01;100064.09;5033669;28;20109;-70
2021/01/14 09:06:06;;;;;;;14.33;7.27;;;;;;;2.25;63.20;100056.06;5033508;28;20088;-69
2021/01/14 09:08:31;;;;;;;16.80;8.63;;;;;;;2.45;61.99;100080.25;5033464;28;20475;-71
2021/01/14 09:10:59;;;;;;;13.83;7.60;;;;;;;2.23;61.96;100037.25;5033401;28;20029;-74
2021/01/14 09:13:28;;;;;;;13.93;7.77;;;;;;;2.26;63.64;100070.56;5029181;28;20395;-73
2021/01/14 09:16:18;;;;;;;13.80;7.60;;;;;;;2.26;63.42;100062.91;5033855;28;20052;-71
2021/01/14 09:18:43;;;;;;;15.03;8.53;;;;;;;2.30;63.25;100075.06;5031551;28;20033;-71
2021/01/14 09:21:11;;;;;;;12.27;7.07;;;;;;;2.28;62.60;100069.00;5016114;28;20083;-71
2021/01/14 09:23:38;;;;;;;11.27;7.03;;;;;;;2.22;62.25;100076.25;5033768;28;20056;-75
2021/01/14 09:26:15;;;;;;;12.63;6.00;;;;;;;1.98;60.22;100068.81;5033257;28;20033;-74
2021/01/14 09:28:41;;;;;;;13.53;8.00;;;;;;;1.98;61.68;100067.91;5033364;28;20025;-71
2021/01/14 09:31:09;;;;;;;12.57;5.70;;;;;;;1.82;60.45;100063.47;5033570;28;20107;-73
2021/01/14 09:33:47;;;;;;;14.23;6.90;;;;;;;1.54;62.38;100039.63;5015663;28;20175;-71
2021/01/14 09:36:17;;;;;;;11.77;6.93;;;;;;;1.79;63.26;100074.34;5033023;28;20026;-71
2021/01/14 09:38:51;;;;;;;15.37;7.43;;;;;;;1.84;62.57;100069.56;5014142;28;20037;-73
2021/01/14 09:41:37;;;;;;;12.47;6.30;;;;;;;1.77;62.44;100066.59;5013165;28;20037;-70
2021/01/14 09:44:07;;;;;;;12.33;6.37;;;;;;;1.56;63.61;100062.66;5013004;28;20038;-73
2021/01/14 09:46:39;;;;;;;18.70;10.67;;;;;;;1.40;64.52;100038.72;5013514;28;20107;-74
2021/01/14 09:49:11;;;;;;;13.10;7.17;;;;;;;1.52;63.98;100033.59;5013217;28;20117;-76
2021/01/14 09:51:38;;;;;;;12.80;7.13;;;;;;;1.56;63.93;100011.78;5013503;28;20053;-71
2021/01/14 09:54:10;;;;;;;15.17;9.43;;;;;;;1.77;64.92;100004.66;5013596;28;20396;-76
2021/01/14 09:56:47;;;;;;;11.93;6.43;;;;;;;1.23;63.30;99922.31;5013050;28;20029;-75
2021/01/14 09:59:18;;;;;;;27.63;16.83;;;;;;;1.82;64.82;99984.56;5012993;28;20022;-73
2021/01/14 10:01:52;;;;;;;17.37;10.60;;;;;;;1.70;63.66;99977.91;5013090;28;20033;-73
2021/01/14 10:04:27;;;;;;;18.10;10.60;;;;;;;1.85;64.59;99972.91;5013209;28;20530;-75
2021/01/14 10:07:15;;;;;;;18.67;7.57;;;;;;;1.79;62.35;99970.00;5012481;28;20030;-73
2021/01/14 10:09:42;;;;;;;11.43;7.33;;;;;;;1.55;62.71;99971.84;4991236;28;20605;-75
2021/01/14 10:12:09;;;;;;;13.63;7.80;;;;;;;1.72;62.53;99976.38;4991142;28;20073;-75
2021/01/14 10:14:35;;;;;;;25.40;14.93;;;;;;;2.05;63.60;99971.63;4991068;28;20051;-73
2021/01/14 10:17:15;;;;;;;14.60;9.73;;;;;;;2.43;63.60;99965.50;4991063;28;20081;-71
2021/01/14 10:19:50;;;;;;;10.30;5.78;;;;;;;2.46;61.34;99952.06;4990821;28;20133;-71
2021/01/14 10:22:16;;;;;;;10.37;5.80;;;;;;;2.75;61.45;99950.38;4990783;28;20030;-74
2021/01/14 10:24:42;;;;;;;10.37;5.97;;;;;;;2.99;59.99;99942.44;4974825;28;20038;-73
2021/01/14 10:27:16;;;;;;;9.83;5.87;;;;;;;2.92;59.63;99951.41;4990897;28;20799;-72
2021/01/14 10:29:43;;;;;;;10.73;6.40;;;;;;;3.04;60.62;99936.81;4990996;28;20112;-73
2021/01/14 10:32:16;;;;;;;8.60;5.40;;;;;;;2.86;57.67;99925.53;4974736;28;20022;-74
2021/01/14 10:34:41;;;;;;;13.37;5.87;;;;;;;2.98;58.18;99913.50;4990727;28;20160;-73
2021/01/14 10:37:29;;;;;;;9.37;5.27;;;;;;;3.21;57.60;99907.16;4990705;28;20119;-72
2021/01/14 10:39:57;;;;;;;10.98;5.35;;;;;;;3.12;58.18;99887.94;4994807;28;20096;-70
2021/01/14 10:42:29;;;;;;;10.60;5.67;;;;;;;3.10;57.30;99874.22;5012526;28;20045;-72
2021/01/14 10:44:56;;;;;;;9.60;5.05;;;;;;;3.33;58.91;99867.88;5012642;28;20030;-74
2021/01/14 10:47:22;;;;;;;8.13;4.60;;;;;;;3.42;58.28;99821.56;5012392;28;20036;-72
2021/01/14 10:49:47;;;;;;;8.45;4.75;;;;;;;3.78;55.19;99849.91;5012586;28;20401;-74
2021/01/14 10:52:13;;;;;;;8.02;4.38;;;;;;;3.70;53.12;99814.63;5012405;28;20037;-70
2021/01/14 10:54:38;;;;;;;7.90;4.55;;;;;;;4.13;52.65;99827.91;5012108;28;20470;-71
2021/01/14 10:57:04;;;;;;;7.63;4.25;;;;;;;4.27;50.50;99816.72;5012163;28;20030;-73
2021/01/14 10:59:29;;;;;;;7.18;4.00;;;;;;;4.34;49.92;99816.22;5012187;28;20400;-74
2021/01/14 11:02:09;;;;;;;7.03;4.30;;;;;;;4.44;49.77;99809.91;5012093;28;20030;-77
2021/01/14 11:04:34;;;;;;;10.27;5.97;;;;;;;4.61;48.52;99810.78;5027603;28;20026;-71
2021/01/14 11:07:12;;;;;;;11.63;5.38;;;;;;;4.46;49.68;99802.31;5028711;28;20037;-73
2021/01/14 11:09:51;;;;;;;8.43;4.18;;;;;;;4.28;47.16;99723.94;5030355;28;20125;-71
2021/01/14 11:12:17;;;;;;;9.43;4.57;;;;;;;4.35;46.60;99758.34;5027895;28;20112;-71
2021/01/14 11:14:43;;;;;;;7.38;3.35;;;;;;;3.94;48.85;99772.41;4977093;28;20034;-74
2021/01/14 11:17:13;;;;;;;12.35;7.10;;;;;;;3.82;49.08;99780.31;5031307;28;20045;-73
2021/01/14 11:19:38;;;;;;;9.55;4.65;;;;;;;4.00;52.02;99771.06;5029407;28;20110;-74
2021/01/14 11:22:03;;;;;;;8.20;3.70;;;;;;;3.87;47.96;99758.47;5030557;28;20029;-75
2021/01/14 11:24:29;;;;;;;11.68;5.22;;;;;;;4.11;46.03;99756.31;5029319;28;20033;-74
2021/01/14 11:26:54;;;;;;;7.03;3.20;;;;;;;3.65;45.01;99705.38;5029622;28;20112;-71
2021/01/14 11:29:20;;;;;;;5.45;2.75;;;;;;;3.82;43.31;99724.16;5028854;28;20103;-70
2021/01/14 11:31:45;;;;;;;6.38;3.05;;;;;;;3.94;46.20;99740.09;5030816;28;20522;-69
2021/01/14 11:34:12;;;;;;;5.68;3.33;;;;;;;3.78;46.09;99740.13;5030384;28;20479;-70